Argyle, FL

8:34 PM CDT on August 22, 2014 (GMT -0500)
WZEP AM 1460 DeFuniak Springs, FL | Change Station
CLOSE
Current Station
Personal Weather Station
Location: DeFuniak Springs, FL
Elevation: 174 ft
Nearby Weather Stations
Active Advisory: Heat Advisory Active Notice: Record Report, Public Information Statement

Elev 174 ft 30.73 °N, 86.12 °W | Updated 5 seconds ago

Scattered Clouds
Scattered Clouds
82.0 °F
Feels Like 90 °F
N
0.0
Wind Variable Wind from North
Gusts 0.0 mph

Today
High -- | Low -- °F
--% Chance of Precip.
Yesterday
High -- | Low -- °F
Precip. -- in
6:14 AM 7:18 PM
Waning Crescent, 6% visible
Pressure 30.01 in
Visibility 10.0 miles
Clouds Scattered Clouds 6000 ft
Heat Index 90 °F
Dew Point 77 °F
Humidity 86%
Rainfall 0.00 in
Snow Depth Not available.
UV 0 out of 12
Pollen 7.70 out of 12
Air Quality Not available.
Flu Activity Not available.
METAR K54J 230115Z AUTO 19004KT 10SM SCT060 28/24 A3001 RMK AO2 T02810243

More Conditions Fewer Conditions

Pressure 30.01 in
Visibility 10.0 miles
Clouds Scattered Clouds 6000 ft
Heat Index 90 °F
Dew Point 77 °F
Humidity 86%
Rainfall 0.00 in
Snow Depth Not available.
UV 0 out of 12
Pollen 7.70 out of 12
Air Quality Not available.
Flu Activity Not available.
METAR K54J 230115Z AUTO 19004KT 10SM SCT060 28/24 A3001 RMK AO2 T02810243

More Conditions Fewer Conditions

10-Day Weather Forecast

Almanac

Astronomy

Aug. 22, 2014 Rise Set
Actual Time 6:14 AM CDT 7:18 PM CDT
Civil Twilight 5:49 AM CDT 7:43 PM CDT
Nautical Twilight 5:20 AM CDT 8:13 PM CDT
Astronomical Twilight 4:49 AM CDT 8:43 PM CDT
Moon 3:42 AM CDT (8/22) 5:23 PM CDT (8/22)
Length of Visible Light 13h 54m
Length of Day
13h 04m
Tomorrow will be 1m 43s shorter.
Waning Crescent, 6% of the Moon is Illuminated
Today
Waning Crescent
Aug 25
New
Sep 2
First Quarter
Sep 8
Full
Sep 15
Last Quarter

Today's Extremes

State Highs State Lows

Community

WunderPhotos

Upload Photos

1,746,337 photos uploaded!

WunderBlogs® & News

Nearby

Snow Depth

Station Depth Elevation
No new snow has been reported.

Earthquake Activity

City Distance Mag. Time & Date
No recent earthquake activity has been reported nearby.
Minimum magnitude displayed is 2.5.

Coastal Water Temperatures

Place Temperature
No Stations Reporting

Nearby Weather Stations